Time;durP1;ratioP1;P1;durP2;ratioP2;P2;SDS_P1;SDS_P2;PMS_P1;PMS_P2;Temp;Humidity;BMP_temperature;BMP_pressure;BME280_temperature;BME280_humidity;BME280_pressure;Samples;Min_cycle;Max_cycle;Signal;HPM_P1;HPM_P2
2021/08/11 00:00:03;;;;;;;;;;;;;;;23.95;65.11;99811.66;2082414;28;19916;-44
2021/08/11 00:01:03;;;;;;;;;;;;;;;23.94;65.12;99801.72;2080603;28;20051;-43
2021/08/11 00:02:04;;;;;;;;;;;;;;;23.94;65.15;99809.97;2080714;28;19920;-45
2021/08/11 00:03:04;;;;;;;;;;;;;;;23.95;65.15;99799.81;2079973;28;19920;-43
2021/08/11 00:04:04;;;;;;;;;;;;;;;23.93;65.15;99794.53;2080865;28;20280;-43
2021/08/11 00:05:05;;;;;;;;;;;;;;;23.94;65.12;99807.22;2084394;28;20246;-43
2021/08/11 00:06:05;;;;;;;;;;;;;;;23.94;65.04;99798.97;2080813;28;19932;-44
2021/08/11 00:07:06;;;;;;;;;;;;;;;23.94;65.05;99800.88;2078670;28;19920;-42
2021/08/11 00:08:06;;;;;;;;;;;;;;;23.94;65.14;99796.22;2080399;28;19920;-43
2021/08/11 00:09:07;;;;;;;;;;;;;;;23.94;65.18;99809.97;2079986;28;19931;-43
2021/08/11 00:10:08;;;;;;;;;;;;;;;23.94;65.14;99809.97;2079242;28;20309;-42
2021/08/11 00:11:08;;;;;;;;;;;;;;;23.93;65.15;99805.53;2079043;28;20330;-43
2021/08/11 00:12:09;;;;;;;;;;;;;;;23.93;65.08;99802.78;2079856;28;19924;-43
2021/08/11 00:13:09;;;;;;;;;;;;;;;23.94;65.13;99806.38;2079115;28;20651;-43
2021/08/11 00:14:09;;;;;;;;;;;;;;;23.94;65.03;99806.38;2081862;28;19997;-43
2021/08/11 00:15:10;;;;;;;;;;;;;;;23.94;65.12;99807.22;2082849;28;19928;-42
2021/08/11 00:16:10;;;;;;;;;;;;;;;23.93;65.20;99800.03;2080314;28;20325;-43
2021/08/11 00:17:11;;;;;;;;;;;;;;;23.93;65.13;99799.16;2083296;28;19974;-43
2021/08/11 00:18:11;;;;;;;;;;;;;;;23.95;65.20;99808.06;2080183;28;19927;-43
2021/08/11 00:19:12;;;;;;;;;;;;;;;23.93;65.20;99805.53;2081366;28;19920;-43
2021/08/11 00:20:12;;;;;;;;;;;;;;;23.94;65.08;99806.38;2079416;28;19927;-42
2021/08/11 00:21:12;;;;;;;;;;;;;;;23.93;65.25;99813.78;2081511;28;19913;-44
2021/08/11 00:22:12;;;;;;;;;;;;;;;23.95;65.14;99817.19;2079791;28;19990;-42
2021/08/11 00:23:14;;;;;;;;;;;;;;;23.93;65.15;99816.53;2081747;28;19920;-44
2021/08/11 00:24:15;;;;;;;;;;;;;;;23.94;65.12;99809.97;2080370;28;19924;-44
2021/08/11 00:25:15;;;;;;;;;;;;;;;23.94;65.09;99811.88;2081173;28;19978;-42
2021/08/11 00:26:15;;;;;;;;;;;;;;;23.95;65.08;99819.94;2081014;28;19913;-44
2021/08/11 00:27:16;;;;;;;;;;;;;;;23.94;65.09;99812.72;2076530;28;19927;-42
2021/08/11 00:28:16;;;;;;;;;;;;;;;23.94;65.08;99818.25;2081369;28;20386;-43
2021/08/11 00:29:16;;;;;;;;;;;;;;;23.95;64.98;99814.44;2078220;28;20533;-42
2021/08/11 00:30:17;;;;;;;;;;;;;;;23.94;65.11;99807.22;2082320;28;19948;-42
2021/08/11 00:31:17;;;;;;;;;;;;;;;23.94;65.06;99807.22;2081610;28;19939;-42
2021/08/11 00:32:17;;;;;;;;;;;;;;;23.94;65.23;99809.97;2082679;28;20024;-44
2021/08/11 00:33:19;;;;;;;;;;;;;;;23.94;65.03;99807.22;2079605;28;20310;-43
2021/08/11 00:34:19;;;;;;;;;;;;;;;23.94;65.14;99807.22;2080788;28;20212;-43
2021/08/11 00:35:19;;;;;;;;;;;;;;;23.94;65.01;99812.72;2080042;28;19974;-43
2021/08/11 00:36:20;;;;;;;;;;;;;;;23.94;65.05;99809.13;2080227;28;19946;-44
2021/08/11 00:37:20;;;;;;;;;;;;;;;23.94;65.08;99812.72;2081976;28;19995;-42
2021/08/11 00:38:22;;;;;;;;;;;;;;;23.95;65.01;99819.94;2081955;28;19920;-45
2021/08/11 00:39:22;;;;;;;;;;;;;;;23.94;65.05;99809.97;2081281;28;19927;-43
2021/08/11 00:40:23;;;;;;;;;;;;;;;23.94;64.97;99812.72;2081442;28;19927;-45
2021/08/11 00:41:23;;;;;;;;;;;;;;;23.94;65.01;99815.47;2079511;28;19924;-46
2021/08/11 00:42:24;;;;;;;;;;;;;;;23.95;64.97;99822.69;2079161;28;19920;-44
2021/08/11 00:43:25;;;;;;;;;;;;;;;23.94;64.99;99812.72;2081849;28;20502;-44
2021/08/11 00:44:25;;;;;;;;;;;;;;;23.95;64.98;99810.81;2077731;28;19912;-45
2021/08/11 00:45:25;;;;;;;;;;;;;;;23.94;64.92;99809.97;2080007;28;19920;-44
2021/08/11 00:46:26;;;;;;;;;;;;;;;23.94;64.95;99807.22;2080767;28;20292;-46
2021/08/11 00:47:28;;;;;;;;;;;;;;;23.94;64.95;99823.75;2078618;28;20043;-44
2021/08/11 00:48:29;;;;;;;;;;;;;;;23.94;64.97;99826.50;2080693;28;19912;-45
2021/08/11 00:49:29;;;;;;;;;;;;;;;23.94;64.92;99818.25;2077608;28;19962;-44
2021/08/11 00:50:30;;;;;;;;;;;;;;;23.94;65.13;99821.00;2077873;28;20311;-45
2021/08/11 00:51:30;;;;;;;;;;;;;;;23.94;65.01;99823.75;2080373;28;19913;-43
2021/08/11 00:52:31;;;;;;;;;;;;;;;23.94;65.08;99822.91;2080105;28;19998;-44
2021/08/11 00:53:32;;;;;;;;;;;;;;;23.94;64.99;99826.50;2081911;28;20798;-46
2021/08/11 00:54:32;;;;;;;;;;;;;;;23.93;64.97;99822.03;2082145;28;19930;-45
2021/08/11 00:55:37;;;;;;;;;;;;;;;23.95;65.01;99836.44;2080226;28;19924;-44
2021/08/11 00:56:40;;;;;;;;;;;;;;;23.93;65.07;99824.81;2078989;28;19923;-44
2021/08/11 00:57:42;;;;;;;;;;;;;;;23.95;65.08;99832.84;2079392;28;20268;-44
2021/08/11 00:58:43;;;;;;;;;;;;;;;23.94;64.99;99829.25;2080692;28;20042;-45
2021/08/11 00:59:43;;;;;;;;;;;;;;;23.94;64.82;99834.75;2081590;28;19928;-44
2021/08/11 01:00:45;;;;;;;;;;;;;;;23.94;64.96;99832.00;2082767;28;19920;-44
2021/08/11 01:01:46;;;;;;;;;;;;;;;23.94;64.95;99832.00;2080858;28;19912;-44
2021/08/11 01:02:47;;;;;;;;;;;;;;;23.95;65.00;99841.09;2081192;28;20027;-45
2021/08/11 01:03:47;;;;;;;;;;;;;;;23.95;64.96;99844.72;2079462;28;19927;-44
2021/08/11 01:04:48;;;;;;;;;;;;;;;23.93;65.06;99844.06;2081820;28;19939;-44
2021/08/11 01:05:50;;;;;;;;;;;;;;;23.95;64.84;99841.09;2079711;28;20315;-46
2021/08/11 01:06:50;;;;;;;;;;;;;;;23.95;64.98;99836.44;2080541;28;20758;-44
2021/08/11 01:07:51;;;;;;;;;;;;;;;23.95;64.92;99835.59;2081122;28;19926;-44
2021/08/11 01:08:55;;;;;;;;;;;;;;;23.94;65.04;99834.75;2080207;28;19920;-44
2021/08/11 01:09:56;;;;;;;;;;;;;;;23.94;65.19;99845.75;2082020;28;20009;-44
2021/08/11 01:10:58;;;;;;;;;;;;;;;23.95;65.11;99843.88;2079862;28;19924;-44
2021/08/11 01:11:58;;;;;;;;;;;;;;;23.93;65.12;99841.31;2079488;28;19920;-44
2021/08/11 01:12:59;;;;;;;;;;;;;;;23.94;65.00;99834.75;2080033;28;19920;-44
2021/08/11 01:14:00;;;;;;;;;;;;;;;23.93;65.11;99844.06;2081694;28;19924;-44
2021/08/11 01:15:04;;;;;;;;;;;;;;;23.93;65.03;99833.06;2080709;28;20022;-44
2021/08/11 01:16:04;;;;;;;;;;;;;;;23.94;65.24;99834.75;2080793;28;19956;-45
2021/08/11 01:17:04;;;;;;;;;;;;;;;23.95;65.02;99832.84;2080331;28;20606;-45
2021/08/11 01:18:05;;;;;;;;;;;;;;;23.94;65.21;99833.91;2074136;28;19913;-45
2021/08/11 01:19:05;;;;;;;;;;;;;;;23.94;65.14;99823.75;2077110;28;19947;-43
2021/08/11 01:20:06;;;;;;;;;;;;;;;23.93;65.07;99827.56;2080485;28;19923;-45
2021/08/11 01:21:25;;;;;;;;;;;;;;;23.95;65.10;99821.84;2079201;28;20137;-43
2021/08/11 01:22:25;;;;;;;;;;;;;;;23.93;65.12;99824.81;2080435;28;19927;-44
2021/08/11 01:23:28;;;;;;;;;;;;;;;23.93;65.12;99827.56;2078726;28;19923;-44
2021/08/11 01:24:41;;;;;;;;;;;;;;;23.93;64.96;99822.03;2078521;28;19943;-45
2021/08/11 01:25:46;;;;;;;;;;;;;;;23.93;64.97;99827.56;2078889;28;19974;-45
2021/08/11 01:26:47;;;;;;;;;;;;;;;23.93;65.09;99822.03;2079659;28;20039;-44
2021/08/11 01:28:06;;;;;;;;;;;;;;;23.93;65.01;99824.81;2079037;28;20160;-44
2021/08/11 01:29:12;;;;;;;;;;;;;;;23.93;65.06;99816.53;2081464;28;19920;-43
2021/08/11 01:30:20;;;;;;;;;;;;;;;23.94;65.03;99823.75;2078109;28;19920;-44
2021/08/11 01:31:27;;;;;;;;;;;;;;;23.94;65.05;99818.25;2080070;28;20123;-46
2021/08/11 01:32:46;;;;;;;;;;;;;;;23.94;65.07;99818.25;2081004;28;19920;-44
2021/08/11 01:34:04;;;;;;;;;;;;;;;23.93;64.98;99815.66;2080561;28;20017;-45
2021/08/11 01:35:09;;;;;;;;;;;;;;;23.92;65.06;99811.22;2079039;28;20019;-42
2021/08/11 01:36:14;;;;;;;;;;;;;;;23.93;65.07;99808.28;2082315;28;19916;-43
2021/08/11 01:37:23;;;;;;;;;;;;;;;23.94;65.05;99806.38;2079928;28;20021;-44
2021/08/11 01:38:25;;;;;;;;;;;;;;;23.93;65.17;99805.53;2081577;28;19924;-44
2021/08/11 01:39:29;;;;;;;;;;;;;;;23.92;65.12;99809.31;2080523;28;19920;-43
2021/08/11 01:40:31;;;;;;;;;;;;;;;23.93;65.00;99816.53;2083648;28;19985;-44
2021/08/11 01:41:34;;;;;;;;;;;;;;;23.92;65.05;99806.56;2080178;28;19920;-45
2021/08/11 01:42:42;;;;;;;;;;;;;;;23.93;65.04;99811.03;2075949;28;20151;-44
2021/08/11 01:43:44;;;;;;;;;;;;;;;23.92;65.05;99803.81;2079911;28;19927;-43
2021/08/11 01:45:02;;;;;;;;;;;;;;;23.93;64.98;99802.78;2080066;28;20357;-44
2021/08/11 01:46:04;;;;;;;;;;;;;;;23.93;65.19;99807.41;2079981;28;19920;-44
2021/08/11 01:47:06;;;;;;;;;;;;;;;23.92;65.17;99803.81;2081287;28;20489;-44
2021/08/11 01:48:21;;;;;;;;;;;;;;;23.92;65.17;99809.31;2080716;28;19927;-44
2021/08/11 01:49:22;;;;;;;;;;;;;;;23.93;65.12;99811.03;2077894;28;19962;-44
2021/08/11 01:50:23;;;;;;;;;;;;;;;23.92;65.18;99803.81;2080321;28;19919;-44
2021/08/11 01:51:24;;;;;;;;;;;;;;;23.93;65.13;99805.53;2080636;28;20031;-44
2021/08/11 01:52:25;;;;;;;;;;;;;;;23.92;65.09;99803.81;2083055;28;20254;-44
2021/08/11 01:53:27;;;;;;;;;;;;;;;23.93;65.14;99805.53;2081351;28;19978;-44
2021/08/11 01:54:27;;;;;;;;;;;;;;;23.94;65.11;99804.47;2079874;28;21867;-45
2021/08/11 01:55:28;;;;;;;;;;;;;;;23.92;65.15;99809.31;2079521;28;20316;-45
2021/08/11 01:56:29;;;;;;;;;;;;;;;23.93;65.11;99800.03;2080429;28;19920;-44
2021/08/11 01:57:30;;;;;;;;;;;;;;;23.93;65.09;99805.53;2079690;28;20666;-46
2021/08/11 01:58:31;;;;;;;;;;;;;;;23.93;65.05;99804.66;2079788;28;20355;-44
2021/08/11 01:59:31;;;;;;;;;;;;;;;23.93;65.19;99802.78;2073741;28;19936;-45
2021/08/11 02:00:32;;;;;;;;;;;;;;;23.92;65.13;99803.81;2076048;28;19928;-45
2021/08/11 02:01:35;;;;;;;;;;;;;;;23.92;64.94;99801.06;2084242;28;19950;-44
2021/08/11 02:02:37;;;;;;;;;;;;;;;23.93;65.09;99797.28;2080252;28;19925;-47
2021/08/11 02:03:38;;;;;;;;;;;;;;;23.93;65.09;99805.53;2080804;28;19912;-44
2021/08/11 02:04:38;;;;;;;;;;;;;;;23.92;65.22;99803.81;2079152;28;19934;-45
2021/08/11 02:05:39;;;;;;;;;;;;;;;23.93;65.19;99793.63;2077143;28;20027;-44
2021/08/11 02:06:40;;;;;;;;;;;;;;;23.92;65.22;99803.81;2083655;28;20246;-44
2021/08/11 02:07:41;;;;;;;;;;;;;;;23.92;65.11;99802.94;2085903;28;19967;-43
2021/08/11 02:08:43;;;;;;;;;;;;;;;23.93;65.16;99805.53;2079549;28;20039;-44
2021/08/11 02:09:44;;;;;;;;;;;;;;;23.93;65.09;99800.03;2080939;28;20362;-44
2021/08/11 02:10:45;;;;;;;;;;;;;;;23.92;65.13;99798.28;2079344;28;19920;-45
2021/08/11 02:11:45;;;;;;;;;;;;;;;23.93;65.21;99804.66;2078806;28;20540;-43
2021/08/11 02:12:46;;;;;;;;;;;;;;;23.93;65.22;99801.91;2077191;28;19927;-44
2021/08/11 02:13:46;;;;;;;;;;;;;;;23.93;65.16;99805.53;2079686;28;19952;-44
2021/08/11 02:14:47;;;;;;;;;;;;;;;23.93;65.15;99804.66;2080231;28;19921;-44
2021/08/11 02:15:48;;;;;;;;;;;;;;;23.93;65.15;99813.78;2081066;28;20183;-45
2021/08/11 02:16:48;;;;;;;;;;;;;;;23.93;65.17;99810.16;2080584;28;19927;-46
2021/08/11 02:17:48;;;;;;;;;;;;;;;23.93;65.11;99801.91;2080357;28;19920;-44
2021/08/11 02:18:49;;;;;;;;;;;;;;;23.92;65.22;99797.44;2080007;28;19924;-44
2021/08/11 02:19:49;;;;;;;;;;;;;;;23.92;65.24;99803.81;2077532;28;19990;-45
2021/08/11 02:20:50;;;;;;;;;;;;;;;23.92;65.22;99803.81;2077729;28;19952;-43
2021/08/11 02:21:50;;;;;;;;;;;;;;;23.92;65.21;99803.81;2078814;28;19970;-45
2021/08/11 02:22:51;;;;;;;;;;;;;;;23.92;65.20;99809.31;2077405;28;19973;-44
2021/08/11 02:23:51;;;;;;;;;;;;;;;23.91;65.33;99807.59;2081168;28;19927;-45
2021/08/11 02:24:51;;;;;;;;;;;;;;;23.92;65.25;99809.31;2079181;28;20537;-45
2021/08/11 02:26:04;;;;;;;;;;;;;;;23.92;65.24;99809.31;2079781;28;19956;-45
2021/08/11 02:27:05;;;;;;;;;;;;;;;23.92;65.22;99806.56;2079283;28;20102;-44
2021/08/11 02:28:07;;;;;;;;;;;;;;;23.93;65.29;99810.16;2079853;28;19923;-43
2021/08/11 02:29:16;;;;;;;;;;;;;;;23.91;65.27;99810.38;2079347;28;19999;-44
2021/08/11 02:30:20;;;;;;;;;;;;;;;23.92;65.37;99812.06;2082299;28;19920;-44
2021/08/11 02:31:23;;;;;;;;;;;;;;;23.92;65.24;99814.81;2080343;28;20041;-44
2021/08/11 02:32:26;;;;;;;;;;;;;;;23.92;65.13;99817.56;2078123;28;20368;-46
2021/08/11 02:33:34;;;;;;;;;;;;;;;23.92;65.33;99820.31;2076587;28;20342;-45
2021/08/11 02:34:42;;;;;;;;;;;;;;;23.92;65.18;99820.31;2077125;28;20765;-44
2021/08/11 02:35:50;;;;;;;;;;;;;;;23.93;65.21;99823.91;2079709;28;20772;-44
2021/08/11 02:36:55;;;;;;;;;;;;;;;23.93;65.22;99822.03;2079726;28;20221;-43
2021/08/11 02:38:00;;;;;;;;;;;;;;;23.92;65.25;99825.81;2079192;28;19925;-45
2021/08/11 02:39:03;;;;;;;;;;;;;;;23.92;65.16;99820.31;2080335;28;20477;-43
2021/08/11 02:40:06;;;;;;;;;;;;;;;23.92;65.17;99820.31;2079154;28;19924;-44
2021/08/11 02:41:38;;;;;;;;;;;;;;;23.92;65.15;99822.22;2078967;28;20223;-44
2021/08/11 02:42:41;;;;;;;;;;;;;;;23.91;65.16;99824.13;2070036;28;19916;-45
2021/08/11 02:43:49;;;;;;;;;;;;;;;23.92;65.20;99825.81;2077644;28;20294;-44
2021/08/11 02:44:53;;;;;;;;;;;;;;;23.92;65.29;99823.06;2080081;28;20356;-45
2021/08/11 02:45:55;;;;;;;;;;;;;;;23.93;65.20;99816.53;2076947;28;19958;-45
2021/08/11 02:46:56;;;;;;;;;;;;;;;23.92;65.22;99817.56;2079736;28;19913;-44
2021/08/11 02:47:58;;;;;;;;;;;;;;;23.91;65.19;99818.63;2079825;28;19920;-44
2021/08/11 02:49:01;;;;;;;;;;;;;;;23.92;65.14;99812.06;2078579;28;19966;-43
2021/08/11 02:50:01;;;;;;;;;;;;;;;23.92;65.25;99814.81;2079390;28;19924;-44
2021/08/11 02:51:06;;;;;;;;;;;;;;;23.92;65.14;99814.81;2075074;28;19925;-44
2021/08/11 02:52:07;;;;;;;;;;;;;;;23.91;65.17;99813.13;2081630;28;19916;-44
2021/08/11 02:53:10;;;;;;;;;;;;;;;23.92;65.20;99814.81;2080068;28;19971;-45
2021/08/11 02:54:12;;;;;;;;;;;;;;;23.92;65.29;99814.81;2080819;28;20391;-45
2021/08/11 02:55:14;;;;;;;;;;;;;;;23.92;65.22;99820.31;2077731;28;20035;-44
2021/08/11 02:56:14;;;;;;;;;;;;;;;23.92;65.22;99817.56;2078996;28;20164;-44
2021/08/11 02:57:15;;;;;;;;;;;;;;;23.91;65.27;99813.13;2078671;28;20655;-44
2021/08/11 02:58:19;;;;;;;;;;;;;;;23.92;65.23;99820.31;2079918;28;20337;-43
2021/08/11 02:59:22;;;;;;;;;;;;;;;23.92;65.26;99817.56;2079837;28;20081;-44
2021/08/11 03:00:23;;;;;;;;;;;;;;;23.91;65.32;99818.63;2080612;28;20219;-44
2021/08/11 03:01:25;;;;;;;;;;;;;;;23.92;65.24;99814.81;2077520;28;19927;-45
2021/08/11 03:02:27;;;;;;;;;;;;;;;23.91;65.25;99807.59;2080158;28;20238;-44
2021/08/11 03:03:27;;;;;;;;;;;;;;;23.92;65.05;99825.81;2076137;28;19921;-44
2021/08/11 03:04:29;;;;;;;;;;;;;;;23.91;65.16;99818.63;2079385;28;19920;-44
2021/08/11 03:05:30;;;;;;;;;;;;;;;23.91;65.15;99818.63;2079602;28;20011;-44
2021/08/11 03:06:31;;;;;;;;;;;;;;;23.92;65.34;99813.97;2074417;28;19920;-44
2021/08/11 03:07:31;;;;;;;;;;;;;;;23.92;65.23;99814.81;2079618;28;19942;-43
2021/08/11 03:08:33;;;;;;;;;;;;;;;23.91;65.27;99813.13;2080494;28;20344;-44
2021/08/11 03:09:34;;;;;;;;;;;;;;;23.91;65.16;99813.13;2076958;28;20459;-44
2021/08/11 03:10:37;;;;;;;;;;;;;;;23.91;65.30;99812.22;2080209;28;19920;-44
2021/08/11 03:11:38;;;;;;;;;;;;;;;23.90;65.26;99816.91;2078280;28;19982;-44
2021/08/11 03:12:39;;;;;;;;;;;;;;;23.90;65.19;99811.38;2079628;28;20007;-44
2021/08/11 03:13:42;;;;;;;;;;;;;;;23.91;65.21;99812.22;2077897;28;20015;-44
2021/08/11 03:14:44;;;;;;;;;;;;;;;23.91;65.19;99815.00;2078738;28;20130;-46
2021/08/11 03:15:44;;;;;;;;;;;;;;;23.90;65.20;99807.78;2081647;28;20088;-44
2021/08/11 03:16:44;;;;;;;;;;;;;;;23.90;65.18;99816.91;2081794;28;20009;-44
2021/08/11 03:17:45;;;;;;;;;;;;;;;23.90;65.25;99816.91;2083606;28;19920;-44
2021/08/11 03:18:48;;;;;;;;;;;;;;;23.90;65.18;99816.91;2081883;28;20753;-43
2021/08/11 03:19:49;;;;;;;;;;;;;;;23.90;65.33;99819.66;2080839;28;19920;-44
2021/08/11 03:20:50;;;;;;;;;;;;;;;23.91;65.29;99817.75;2077715;28;19913;-44
2021/08/11 03:21:50;;;;;;;;;;;;;;;23.91;65.19;99812.22;2083302;28;20207;-44
2021/08/11 03:22:50;;;;;;;;;;;;;;;23.91;65.26;99813.13;2082167;28;19924;-45
2021/08/11 03:23:51;;;;;;;;;;;;;;;23.92;65.29;99814.81;2084805;28;19921;-45
2021/08/11 03:24:53;;;;;;;;;;;;;;;23.91;65.24;99810.38;2080017;28;19916;-45
2021/08/11 03:25:54;;;;;;;;;;;;;;;23.90;65.22;99811.38;2079656;28;19971;-45
2021/08/11 03:26:54;;;;;;;;;;;;;;;23.90;65.16;99814.13;2078923;28;20599;-47
2021/08/11 03:27:54;;;;;;;;;;;;;;;23.89;65.17;99809.69;2077457;28;20331;-45
2021/08/11 03:28:59;;;;;;;;;;;;;;;23.89;65.25;99804.19;2080273;28;19916;-45
2021/08/11 03:30:00;;;;;;;;;;;;;;;23.91;65.22;99812.22;2082443;28;19927;-44
2021/08/11 03:31:00;;;;;;;;;;;;;;;23.90;65.20;99811.38;2080812;28;20329;-45
2021/08/11 03:32:01;;;;;;;;;;;;;;;23.89;65.34;99812.44;2080069;28;19928;-44
2021/08/11 03:33:02;;;;;;;;;;;;;;;23.90;65.31;99811.38;2081115;28;19947;-44
2021/08/11 03:34:02;;;;;;;;;;;;;;;23.89;65.33;99806.94;2082271;28;20349;-44
2021/08/11 03:35:03;;;;;;;;;;;;;;;23.90;65.20;99814.13;2081090;28;19932;-44
2021/08/11 03:36:05;;;;;;;;;;;;;;;23.91;65.16;99815.88;2082157;28;20030;-44
2021/08/11 03:37:06;;;;;;;;;;;;;;;23.90;65.28;99811.38;2081155;28;20303;-44
2021/08/11 03:38:06;;;;;;;;;;;;;;;23.90;65.16;99816.91;2083954;28;19963;-45
2021/08/11 03:39:07;;;;;;;;;;;;;;;23.90;65.28;99816.91;2074287;28;19921;-46
2021/08/11 03:40:07;;;;;;;;;;;;;;;23.89;65.16;99826.22;2077953;28;19927;-44
2021/08/11 03:41:08;;;;;;;;;;;;;;;23.89;65.21;99820.69;2080980;28;19963;-44
2021/08/11 03:42:08;;;;;;;;;;;;;;;23.90;65.24;99825.16;2084093;28;20823;-44
2021/08/11 03:43:09;;;;;;;;;;;;;;;23.91;65.11;99820.50;2081173;28;19916;-45
2021/08/11 03:44:09;;;;;;;;;;;;;;;23.90;65.23;99819.66;2083910;28;19924;-44
2021/08/11 03:45:10;;;;;;;;;;;;;;;23.90;65.18;99827.91;2080256;28;20574;-44
2021/08/11 03:46:11;;;;;;;;;;;;;;;23.90;65.19;99824.31;2080962;28;19958;-43
2021/08/11 03:47:11;;;;;;;;;;;;;;;23.90;65.24;99825.16;2082274;28;19921;-44
2021/08/11 03:48:12;;;;;;;;;;;;;;;23.89;65.21;99828.97;2079836;28;20210;-43
2021/08/11 03:49:12;;;;;;;;;;;;;;;23.90;65.26;99830.66;2081848;28;19935;-45
2021/08/11 03:50:13;;;;;;;;;;;;;;;23.90;65.22;99830.66;2082192;28;19920;-45
2021/08/11 03:51:14;;;;;;;;;;;;;;;23.90;65.25;99827.91;2082846;28;20511;-44
2021/08/11 03:52:14;;;;;;;;;;;;;;;23.90;65.23;99833.41;2084197;28;20018;-44
2021/08/11 03:53:15;;;;;;;;;;;;;;;23.90;65.20;99832.56;2083166;28;19924;-44
2021/08/11 03:54:15;;;;;;;;;;;;;;;23.90;65.23;99836.16;2081947;28;19931;-45
2021/08/11 03:55:15;;;;;;;;;;;;;;;23.89;65.17;99837.22;2079550;28;19925;-44
2021/08/11 03:56:16;;;;;;;;;;;;;;;23.90;65.25;99844.41;2081781;28;20018;-45
2021/08/11 03:57:16;;;;;;;;;;;;;;;23.89;65.18;99848.22;2081227;28;20395;-45
2021/08/11 03:58:16;;;;;;;;;;;;;;;23.89;65.32;99848.22;2081961;28;19920;-44
2021/08/11 03:59:17;;;;;;;;;;;;;;;23.89;65.26;99842.72;2082322;28;20224;-44
2021/08/11 04:00:17;;;;;;;;;;;;;;;23.90;65.25;99851.84;2083665;28;20285;-45
2021/08/11 04:01:18;;;;;;;;;;;;;;;23.89;65.25;99853.72;2081343;28;19912;-46
2021/08/11 04:02:18;;;;;;;;;;;;;;;23.89;65.21;99850.97;2079871;28;19921;-44
2021/08/11 04:03:18;;;;;;;;;;;;;;;23.88;65.25;99857.50;2082146;28;20373;-45
2021/08/11 04:04:19;;;;;;;;;;;;;;;23.89;65.22;99853.72;2082089;28;19924;-43
2021/08/11 04:05:19;;;;;;;;;;;;;;;23.89;65.26;99853.72;2081149;28;19917;-45
2021/08/11 04:06:20;;;;;;;;;;;;;;;23.89;65.25;99852.88;2080858;28;19951;-45
2021/08/11 04:07:20;;;;;;;;;;;;;;;23.89;65.24;99858.38;2080638;28;21764;-45
2021/08/11 04:08:20;;;;;;;;;;;;;;;23.89;65.29;99859.25;2083163;28;19920;-47
2021/08/11 04:09:20;;;;;;;;;;;;;;;23.90;65.38;99860.09;2082437;28;19924;-44
2021/08/11 04:10:21;;;;;;;;;;;;;;;23.89;65.25;99853.72;2082081;28;20062;-44
2021/08/11 04:11:21;;;;;;;;;;;;;;;23.88;65.21;99854.75;2080957;28;20302;-44
2021/08/11 04:12:22;;;;;;;;;;;;;;;23.89;65.25;99862.00;2080927;28;19920;-43
2021/08/11 04:13:22;;;;;;;;;;;;;;;23.88;65.29;99852.00;2083973;28;19984;-44
2021/08/11 04:14:22;;;;;;;;;;;;;;;23.88;65.18;99863.00;2081161;28;19932;-44
2021/08/11 04:15:23;;;;;;;;;;;;;;;23.90;65.25;99871.09;2082248;28;20903;-44
2021/08/11 04:16:23;;;;;;;;;;;;;;;23.89;65.12;99864.75;2076912;28;20226;-44
2021/08/11 04:17:23;;;;;;;;;;;;;;;23.89;65.26;99870.25;2080590;28;20314;-43
2021/08/11 04:18:24;;;;;;;;;;;;;;;23.89;65.24;99870.25;2083150;28;19920;-44
2021/08/11 04:19:24;;;;;;;;;;;;;;;23.90;65.20;99871.94;2080807;28;19928;-43
2021/08/11 04:20:24;;;;;;;;;;;;;;;23.89;65.20;99877.66;2083728;28;19970;-43
2021/08/11 04:21:25;;;;;;;;;;;;;;;23.89;65.20;99878.50;2083297;28;20250;-43
2021/08/11 04:22:25;;;;;;;;;;;;;;;23.89;65.19;99870.25;2082091;28;19959;-44
2021/08/11 04:23:27;;;;;;;;;;;;;;;23.89;65.26;99881.25;2082592;28;20010;-45
2021/08/11 04:24:27;;;;;;;;;;;;;;;23.89;65.20;99878.50;2082277;28;19920;-45
2021/08/11 04:25:27;;;;;;;;;;;;;;;23.89;65.26;99875.75;2081713;28;19921;-44
2021/08/11 04:26:28;;;;;;;;;;;;;;;23.87;65.22;99872.31;2082414;28;19926;-44
2021/08/11 04:27:28;;;;;;;;;;;;;;;23.88;65.22;99874.03;2081740;28;19924;-44
2021/08/11 04:28:29;;;;;;;;;;;;;;;23.89;65.17;99875.75;2079293;28;20310;-44
2021/08/11 04:29:29;;;;;;;;;;;;;;;23.89;65.20;99875.75;2080960;28;19924;-45
2021/08/11 04:30:29;;;;;;;;;;;;;;;23.88;65.24;99879.53;2081241;28;19931;-45
2021/08/11 04:31:30;;;;;;;;;;;;;;;23.89;65.29;99874.91;2083153;28;19917;-44
2021/08/11 04:32:33;;;;;;;;;;;;;;;23.88;65.29;99885.03;2081358;28;20050;-44
2021/08/11 04:33:33;;;;;;;;;;;;;;;23.88;65.24;99879.53;2080715;28;19924;-44
2021/08/11 04:34:34;;;;;;;;;;;;;;;23.87;65.25;99872.31;2082926;28;20466;-44
2021/08/11 04:35:36;;;;;;;;;;;;;;;23.88;65.27;99884.19;2079507;28;19924;-43
2021/08/11 04:36:37;;;;;;;;;;;;;;;23.89;65.22;99880.41;2082323;28;20854;-44
2021/08/11 04:37:38;;;;;;;;;;;;;;;23.88;65.17;99893.28;2080381;28;20385;-45
2021/08/11 04:38:38;;;;;;;;;;;;;;;23.87;65.31;99880.59;2081207;28;19965;-44
2021/08/11 04:39:38;;;;;;;;;;;;;;;23.89;65.26;99894.19;2079080;28;19928;-44
2021/08/11 04:40:39;;;;;;;;;;;;;;;23.87;65.28;99883.34;2080329;28;19925;-43
2021/08/11 04:41:39;;;;;;;;;;;;;;;23.88;65.26;99898.81;2081991;28;20252;-44
2021/08/11 04:42:40;;;;;;;;;;;;;;;23.88;65.13;99896.03;2078100;28;19920;-48
2021/08/11 04:43:40;;;;;;;;;;;;;;;23.87;65.15;99899.84;2081316;28;19920;-44
2021/08/11 04:44:41;;;;;;;;;;;;;;;23.88;65.24;99904.31;2078084;28;20228;-44
2021/08/11 04:45:42;;;;;;;;;;;;;;;23.86;65.22;99898.16;2081734;28;19944;-43
2021/08/11 04:46:43;;;;;;;;;;;;;;;23.88;65.17;99909.81;2081590;28;19919;-43
2021/08/11 04:47:43;;;;;;;;;;;;;;;23.88;65.32;99901.56;2081818;28;19924;-44
2021/08/11 04:48:43;;;;;;;;;;;;;;;23.87;65.28;99905.34;2081939;28;19969;-44
2021/08/11 04:49:44;;;;;;;;;;;;;;;23.86;65.31;99898.16;2079338;28;20598;-44
2021/08/11 04:50:45;;;;;;;;;;;;;;;23.88;65.20;99907.06;2080026;28;19921;-43
2021/08/11 04:51:45;;;;;;;;;;;;;;;23.88;65.03;99901.56;2088079;28;19928;-43
2021/08/11 04:52:46;;;;;;;;;;;;;;;23.88;65.25;99909.81;2087324;28;19941;-44
2021/08/11 04:53:46;;;;;;;;;;;;;;;23.90;65.15;99907.72;2080118;28;20381;-43
2021/08/11 04:54:47;;;;;;;;;;;;;;;23.89;65.27;99910.69;2082288;28;19962;-45
2021/08/11 04:55:48;;;;;;;;;;;;;;;23.88;65.21;99907.06;2079345;28;19970;-44
2021/08/11 04:56:49;;;;;;;;;;;;;;;23.88;65.14;99918.06;2081952;28;19920;-43
2021/08/11 04:57:49;;;;;;;;;;;;;;;23.86;65.16;99903.66;2081098;28;19925;-44
2021/08/11 04:58:49;;;;;;;;;;;;;;;23.88;65.17;99912.56;2083401;28;22239;-43
2021/08/11 04:59:50;;;;;;;;;;;;;;;23.87;65.31;99913.63;2078669;28;20187;-44
2021/08/11 05:00:50;;;;;;;;;;;;;;;23.87;65.15;99916.38;2079106;28;19920;-43
2021/08/11 05:01:50;;;;;;;;;;;;;;;23.87;65.15;99910.88;2080307;28;19915;-45
2021/08/11 05:02:50;;;;;;;;;;;;;;;23.87;65.25;99921.88;2080224;28;19931;-44
2021/08/11 05:03:51;;;;;;;;;;;;;;;23.87;65.10;99916.38;2080709;28;20297;-44
2021/08/11 05:04:51;;;;;;;;;;;;;;;23.88;65.04;99920.81;2080396;28;19921;-43
2021/08/11 05:05:52;;;;;;;;;;;;;;;23.87;65.19;99924.63;2080279;28;19927;-43
2021/08/11 05:06:52;;;;;;;;;;;;;;;23.87;65.29;99921.88;2081680;28;20223;-46
2021/08/11 05:07:52;;;;;;;;;;;;;;;23.87;65.23;99921.03;2079053;28;19963;-43
2021/08/11 05:08:53;;;;;;;;;;;;;;;23.86;65.30;99914.66;2079367;28;19978;-43
2021/08/11 05:09:53;;;;;;;;;;;;;;;23.86;65.11;99914.66;2080064;28;20469;-43
2021/08/11 05:10:54;;;;;;;;;;;;;;;23.87;65.23;99915.53;2079625;28;20559;-44
2021/08/11 05:11:54;;;;;;;;;;;;;;;23.88;65.28;99925.47;2080619;28;20475;-43
2021/08/11 05:12:54;;;;;;;;;;;;;;;23.86;65.27;99922.94;2079966;28;20041;-43
2021/08/11 05:13:55;;;;;;;;;;;;;;;23.87;65.25;99919.13;2081215;28;19959;-44
2021/08/11 05:14:55;;;;;;;;;;;;;;;23.87;65.21;99915.53;2078829;28;20781;-44
2021/08/11 05:15:56;;;;;;;;;;;;;;;23.86;65.29;99920.19;2081969;28;20503;-43
2021/08/11 05:16:56;;;;;;;;;;;;;;;23.86;65.25;99920.19;2081428;28;20175;-44
2021/08/11 05:17:56;;;;;;;;;;;;;;;23.86;65.25;99919.28;2080101;28;21741;-44
2021/08/11 05:18:56;;;;;;;;;;;;;;;23.85;65.20;99921.19;2080458;28;20756;-44
2021/08/11 05:19:57;;;;;;;;;;;;;;;23.86;65.24;99920.19;2078965;28;20303;-43
2021/08/11 05:20:57;;;;;;;;;;;;;;;23.86;65.13;99922.94;2079951;28;19921;-44